createdAt,value
2024-03-02T00:00:29.715Z,100589.63
2024-03-02T00:02:56.886Z,100590.47
2024-03-02T00:05:24.006Z,100595.44
2024-03-02T00:07:58.872Z,100595.72
2024-03-02T00:10:41.472Z,100596.59
2024-03-02T00:13:09.619Z,100586.97
2024-03-02T00:15:45.915Z,100589.75
2024-03-02T00:18:15.622Z,100579.09
2024-03-02T00:20:42.631Z,100579.09
2024-03-02T00:23:14.777Z,100581.56
2024-03-02T00:25:46.684Z,100581.63
2024-03-02T00:28:30.793Z,100574.09
2024-03-02T00:31:05.855Z,100576.34
2024-03-02T00:33:45.932Z,100585.06
2024-03-02T00:36:15.447Z,100589.94
2024-03-02T00:38:50.934Z,100578.22
2024-03-02T00:41:18.033Z,100583.81
2024-03-02T00:43:49.019Z,100576.22
2024-03-02T00:46:20.845Z,100578.84
2024-03-02T00:48:50.913Z,100575.81
2024-03-02T00:51:17.734Z,100584.69
2024-03-02T00:53:44.708Z,100582.03
2024-03-02T00:56:13.125Z,100582.97
2024-03-02T00:58:41.021Z,100577.78
2024-03-02T01:01:08.555Z,100593.13
2024-03-02T01:03:35.722Z,100587.16
2024-03-02T01:06:03.445Z,100591.44
2024-03-02T01:08:30.515Z,100588.81
2024-03-02T01:10:57.794Z,100596.41
2024-03-02T01:13:24.994Z,100590.44
2024-03-02T01:15:52.513Z,100599.81
2024-03-02T01:18:19.540Z,100602.38
2024-03-02T01:20:46.671Z,100594.69
2024-03-02T01:23:13.875Z,100599.81
2024-03-02T01:25:41.167Z,100604.94
2024-03-02T01:28:08.171Z,100601.53
2024-03-02T01:30:35.020Z,100598.19
2024-03-02T01:33:03.402Z,100589.72
2024-03-02T01:35:30.316Z,100597.38
2024-03-02T01:37:57.258Z,100594.81
2024-03-02T01:40:27.611Z,100602.50
2024-03-02T01:42:55.752Z,100593.94
2024-03-02T01:45:23.310Z,100599.94
2024-03-02T01:47:50.688Z,100605.06
2024-03-02T01:50:26.256Z,100596.56
2024-03-02T01:52:53.336Z,100594.81
2024-03-02T01:55:20.149Z,100592.19
2024-03-02T01:57:48.296Z,100591.31
2024-03-02T02:00:16.113Z,100599.94
2024-03-02T02:02:43.127Z,100594.06
2024-03-02T02:05:10.359Z,100596.56
2024-03-02T02:07:37.370Z,100599.97
2024-03-02T02:10:04.904Z,100601.53
2024-03-02T02:12:32.828Z,100610.91
2024-03-02T02:15:00.198Z,100607.44
2024-03-02T02:17:27.459Z,100606.56
2024-03-02T02:19:54.613Z,100605.63
2024-03-02T02:22:21.397Z,100606.41
2024-03-02T02:24:48.264Z,100604.66
2024-03-02T02:27:16.488Z,100603.66
2024-03-02T02:29:43.493Z,100598.53
2024-03-02T02:32:10.412Z,100606.41
2024-03-02T02:34:37.484Z,100611.69
2024-03-02T02:37:04.542Z,100611.53
2024-03-02T02:39:31.627Z,100605.47
2024-03-02T02:42:01.617Z,100606.22
2024-03-02T02:44:28.460Z,100609.75
2024-03-02T02:46:55.292Z,100615.72
2024-03-02T02:49:22.092Z,100607.19
2024-03-02T02:51:49.009Z,100602.91
2024-03-02T02:54:15.957Z,100620.16
2024-03-02T02:56:42.789Z,100612.63
2024-03-02T02:59:09.669Z,100613.53
2024-03-02T03:01:36.608Z,100611.78
2024-03-02T03:04:03.533Z,100615.16
2024-03-02T03:06:30.348Z,100611.75
2024-03-02T03:08:57.269Z,100615.16
2024-03-02T03:11:26.033Z,100620.44
2024-03-02T03:13:54.168Z,100617.97
2024-03-02T03:16:21.087Z,100620.69
2024-03-02T03:18:48.044Z,100623.16
2024-03-02T03:21:14.938Z,100625.66
2024-03-02T03:23:41.752Z,100617.97
2024-03-02T03:26:08.615Z,100619.81
2024-03-02T03:28:35.528Z,100618.13
2024-03-02T03:31:03.405Z,100613.78
2024-03-02T03:33:30.316Z,100617.19
2024-03-02T03:35:57.192Z,100612.84
2024-03-02T03:38:24.062Z,100609.38
2024-03-02T03:40:51.005Z,100608.44
2024-03-02T03:43:18.087Z,100604.16
2024-03-02T03:45:45.419Z,100609.22
2024-03-02T03:48:12.388Z,100610.06
2024-03-02T03:50:39.329Z,100611.78
2024-03-02T03:53:06.202Z,100604.06
2024-03-02T03:55:33.076Z,100602.31
2024-03-02T03:58:00.114Z,100606.56
2024-03-02T04:00:27.248Z,100608.19
2024-03-02T04:02:54.129Z,100604.66
2024-03-02T04:05:20.948Z,100599.44
2024-03-02T04:07:47.808Z,100596.72
2024-03-02T04:10:14.965Z,100600.09
2024-03-02T04:12:41.890Z,100605.19
2024-03-02T04:15:09.521Z,100603.53
2024-03-02T04:17:37.217Z,100604.41
2024-03-02T04:20:06.480Z,100608.59
2024-03-02T04:22:34.775Z,100617.00
2024-03-02T04:25:02.448Z,100613.56
2024-03-02T04:27:30.198Z,100612.88
2024-03-02T04:29:57.084Z,100611.22
2024-03-02T04:32:23.992Z,100611.16
2024-03-02T04:34:50.833Z,100600.91
2024-03-02T04:37:17.791Z,100609.38
2024-03-02T04:39:44.798Z,100610.31
2024-03-02T04:42:11.762Z,100618.00
2024-03-02T04:44:39.447Z,100615.44
2024-03-02T04:47:06.509Z,100619.63
2024-03-02T04:49:33.535Z,100611.94
2024-03-02T04:52:00.642Z,100614.50
2024-03-02T04:54:28.098Z,100621.25
2024-03-02T04:56:54.967Z,100613.56
2024-03-02T04:59:21.990Z,100612.84
2024-03-02T05:01:49.101Z,100611.28
2024-03-02T05:04:16.074Z,100612.22
2024-03-02T05:06:43.014Z,100614.78
2024-03-02T05:09:10.807Z,100613.16
2024-03-02T05:11:40.491Z,100619.91
2024-03-02T05:14:07.935Z,100614.91
2024-03-02T05:16:35.766Z,100615.03
2024-03-02T05:19:02.907Z,100608.19
2024-03-02T05:21:29.846Z,100616.66
2024-03-02T05:23:56.718Z,100612.34
2024-03-02T05:26:23.751Z,100622.66
2024-03-02T05:28:50.621Z,100614.09
2024-03-02T05:31:17.840Z,100619.34
2024-03-02T05:33:45.354Z,100613.41
2024-03-02T05:36:12.335Z,100618.53
2024-03-02T05:38:39.305Z,100620.28
2024-03-02T05:41:06.182Z,100615.16
2024-03-02T05:43:33.089Z,100621.16
2024-03-02T05:46:00.053Z,100625.41
2024-03-02T05:48:26.896Z,100613.53
2024-03-02T05:50:53.742Z,100627.16
2024-03-02T05:53:20.760Z,100621.16
2024-03-02T05:55:48.242Z,100623.78
2024-03-02T05:58:32.469Z,100618.91
2024-03-02T06:00:59.606Z,100629.91
2024-03-02T06:03:27.163Z,100627.56
2024-03-02T06:05:54.212Z,100629.44
2024-03-02T06:08:21.437Z,100626.19
2024-03-02T06:10:48.328Z,100625.38
2024-03-02T06:13:15.258Z,100623.91
2024-03-02T06:15:42.594Z,100623.34
2024-03-02T06:18:09.571Z,100626.84
2024-03-02T06:20:37.216Z,100624.38
2024-03-02T06:23:05.488Z,100628.94
2024-03-02T06:25:32.440Z,100629.06
2024-03-02T06:27:59.652Z,100618.81
2024-03-02T06:30:26.684Z,100627.44
2024-03-02T06:32:53.681Z,100623.44
2024-03-02T06:35:20.713Z,100624.44
2024-03-02T06:37:47.563Z,100625.31
2024-03-02T06:40:14.936Z,100630.44
2024-03-02T06:42:41.914Z,100624.59
2024-03-02T06:45:09.042Z,100628.16
2024-03-02T06:47:35.934Z,100631.72
2024-03-02T06:50:02.963Z,100623.31
2024-03-02T06:52:31.141Z,100633.69
2024-03-02T06:54:58.077Z,100632.19
2024-03-02T06:57:25.817Z,100631.91
2024-03-02T06:59:55.126Z,100634.88
2024-03-02T07:02:22.298Z,100631.75
2024-03-02T07:04:49.228Z,100635.47
2024-03-02T07:07:16.046Z,100636.34
2024-03-02T07:09:42.924Z,100635.38
2024-03-02T07:12:09.973Z,100637.94
2024-03-02T07:15:06.052Z,100633.72
2024-03-02T07:17:34.149Z,100637.22
2024-03-02T07:20:01.162Z,100636.69
2024-03-02T07:22:28.071Z,100632.69
2024-03-02T07:24:54.999Z,100628.34
2024-03-02T07:27:21.948Z,100626.72
2024-03-02T07:29:48.795Z,100631.16
2024-03-02T07:32:16.146Z,100636.38
2024-03-02T07:34:42.950Z,100638.34
2024-03-02T07:37:10.003Z,100624.13
2024-03-02T07:39:36.964Z,100629.38
2024-03-02T07:42:03.928Z,100624.19
2024-03-02T07:44:30.831Z,100619.72
2024-03-02T07:47:01.099Z,100622.34
2024-03-02T07:49:28.102Z,100622.47
2024-03-02T07:51:55.067Z,100616.63
2024-03-02T07:54:21.999Z,100621.03
2024-03-02T07:56:48.861Z,100615.22
2024-03-02T07:59:15.702Z,100611.94
2024-03-02T08:01:42.934Z,100618.06
2024-03-02T08:04:10.021Z,100613.03
2024-03-02T08:06:37.014Z,100612.38
2024-03-02T08:09:10.340Z,100606.56
2024-03-02T08:11:38.521Z,100610.84
2024-03-02T08:14:05.836Z,100606.50
2024-03-02T08:16:33.953Z,100612.47
2024-03-02T08:19:01.104Z,100607.13
2024-03-02T08:21:31.548Z,100615.66
2024-03-02T08:23:59.315Z,100620.06
2024-03-02T08:26:26.263Z,100608.16
2024-03-02T08:28:53.176Z,100610.41
2024-03-02T08:31:20.122Z,100610.66
2024-03-02T08:33:47.146Z,100615.16
2024-03-02T08:36:14.059Z,100607.66
2024-03-02T08:38:41.204Z,100619.16
2024-03-02T08:41:08.609Z,100614.00
2024-03-02T08:43:35.634Z,100613.09
2024-03-02T08:46:03.087Z,100618.84
2024-03-02T08:48:30.097Z,100615.88
2024-03-02T08:50:57.023Z,100616.47
2024-03-02T08:53:23.938Z,100614.75
2024-03-02T08:55:51.199Z,100620.56
2024-03-02T08:58:18.195Z,100621.47
2024-03-02T09:00:45.492Z,100614.63
2024-03-02T09:03:12.583Z,100614.44
2024-03-02T09:05:39.447Z,100616.94
2024-03-02T09:08:06.626Z,100616.41
2024-03-02T09:10:34.174Z,100606.94
2024-03-02T09:13:01.387Z,100611.34
2024-03-02T09:15:28.429Z,100614.75
2024-03-02T09:17:55.487Z,100611.16
2024-03-02T09:20:22.448Z,100608.38
2024-03-02T09:22:50.059Z,100608.38
2024-03-02T09:25:17.397Z,100609.44
2024-03-02T09:27:45.255Z,100607.97
2024-03-02T09:30:12.725Z,100602.94
2024-03-02T09:32:39.849Z,100606.44
2024-03-02T09:35:07.329Z,100603.34
2024-03-02T09:37:34.315Z,100602.00
2024-03-02T09:40:01.924Z,100602.19
2024-03-02T09:42:29.366Z,100602.34
2024-03-02T09:44:56.454Z,100598.16
2024-03-02T09:47:23.334Z,100590.75
2024-03-02T09:49:50.578Z,100599.38
2024-03-02T09:52:17.526Z,100599.44
2024-03-02T09:54:44.860Z,100590.09
2024-03-02T09:57:11.851Z,100601.81
2024-03-02T09:59:38.882Z,100595.53
2024-03-02T10:02:08.311Z,100588.44
2024-03-02T10:04:38.545Z,100588.69
2024-03-02T10:07:16.372Z,100587.72
2024-03-02T10:09:46.300Z,100582.81
2024-03-02T10:12:15.418Z,100589.78
2024-03-02T10:14:43.022Z,100590.50
2024-03-02T10:17:12.112Z,100592.16
2024-03-02T10:19:44.478Z,100588.44
2024-03-02T10:22:11.851Z,100584.91
2024-03-02T10:24:42.602Z,100591.88
2024-03-02T10:27:17.540Z,100586.72
2024-03-02T10:29:48.141Z,100591.31
2024-03-02T10:32:16.073Z,100592.81
2024-03-02T10:34:45.358Z,100588.50
2024-03-02T10:37:13.475Z,100598.13
2024-03-02T10:39:41.975Z,100588.91
2024-03-02T10:42:09.366Z,100589.25
2024-03-02T10:44:36.687Z,100599.81
2024-03-02T10:47:05.712Z,100595.13
2024-03-02T10:49:34.021Z,100597.34
2024-03-02T10:52:01.425Z,100590.66
2024-03-02T10:54:31.104Z,100589.94
2024-03-02T10:57:01.483Z,100587.47
2024-03-02T10:59:41.001Z,100587.91
2024-03-02T11:02:12.219Z,100578.16
2024-03-02T11:04:42.048Z,100576.19
2024-03-02T11:07:13.739Z,100576.78
2024-03-02T11:09:49.797Z,100596.47
2024-03-02T11:12:21.025Z,100572.56
2024-03-02T11:14:48.037Z,100566.63
2024-03-02T11:17:19.192Z,100573.25
2024-03-02T11:19:47.319Z,100570.97
2024-03-02T11:22:14.845Z,100579.88
2024-03-02T11:24:50.338Z,100587.66
2024-03-02T11:27:46.346Z,100590.78
2024-03-02T11:30:33.995Z,100597.09
2024-03-02T11:33:04.559Z,100591.88
2024-03-02T11:35:32.373Z,100590.00
2024-03-02T11:38:00.120Z,100588.97
2024-03-02T11:40:27.412Z,100581.06
2024-03-02T11:42:54.847Z,100578.25
2024-03-02T11:45:25.875Z,100588.63
2024-03-02T11:47:55.364Z,100583.25
2024-03-02T11:50:36.645Z,100583.28
2024-03-02T11:53:07.241Z,100578.59
2024-03-02T11:55:37.160Z,100586.50
2024-03-02T11:58:05.777Z,100585.00
2024-03-02T12:00:32.886Z,100583.47
2024-03-02T12:03:13.874Z,100578.13
2024-03-02T12:05:41.086Z,100572.19
2024-03-02T12:08:08.606Z,100558.22
2024-03-02T12:10:37.372Z,100551.41
2024-03-02T12:13:06.345Z,100541.19
2024-03-02T12:15:35.790Z,100515.66
2024-03-02T12:18:03.162Z,100504.72
2024-03-02T12:20:31.785Z,100486.22
2024-03-02T12:23:05.980Z,100459.09
2024-03-02T12:25:37.858Z,100425.47
2024-03-02T12:28:05.634Z,100412.75
2024-03-02T12:30:37.039Z,100365.31
2024-03-02T12:33:04.494Z,100345.53
2024-03-02T12:35:31.526Z,100337.75
2024-03-02T12:37:59.672Z,100306.53
2024-03-02T12:40:26.705Z,100326.47
2024-03-02T12:42:53.730Z,100341.16
2024-03-02T12:45:25.747Z,100330.75
2024-03-02T12:47:53.381Z,100318.59
2024-03-02T12:50:21.002Z,100340.13
2024-03-02T12:52:57.069Z,100371.25
2024-03-02T12:55:25.075Z,100397.66
2024-03-02T12:57:55.516Z,100420.19
2024-03-02T13:00:24.080Z,100438.19
2024-03-02T13:02:52.820Z,100430.38
2024-03-02T13:05:21.186Z,100451.03
2024-03-02T13:07:50.128Z,100465.25
2024-03-02T13:10:19.236Z,100505.97
2024-03-02T13:12:46.801Z,100573.09
2024-03-02T13:15:17.441Z,100647.94
2024-03-02T13:17:47.732Z,100699.38
2024-03-02T13:20:16.142Z,100747.56
2024-03-02T13:22:43.395Z,100821.41
2024-03-02T13:25:12.280Z,100883.25
2024-03-02T13:27:39.776Z,100888.66
2024-03-02T13:30:07.412Z,100869.47
2024-03-02T13:32:34.468Z,100748.09
2024-03-02T13:35:01.723Z,100697.78
2024-03-02T13:37:28.694Z,100665.91
2024-03-02T13:39:55.789Z,100646.69
2024-03-02T13:42:23.021Z,100625.94
2024-03-02T13:44:52.162Z,100614.63
2024-03-02T13:47:19.100Z,100616.16
2024-03-02T13:49:48.229Z,100616.06
2024-03-02T13:52:18.057Z,100619.38
2024-03-02T13:54:47.776Z,100614.00
2024-03-02T13:57:15.873Z,100628.16
2024-03-02T13:59:44.810Z,100628.00
2024-03-02T14:02:13.381Z,100619.31
2024-03-02T14:04:40.951Z,100619.28
2024-03-02T14:07:08.894Z,100625.34
2024-03-02T14:09:36.397Z,100615.31
2024-03-02T14:12:04.102Z,100619.16
2024-03-02T14:14:31.047Z,100608.22
2024-03-02T14:17:01.542Z,100604.28
2024-03-02T14:19:28.787Z,100599.28
2024-03-02T14:21:55.864Z,100603.56
2024-03-02T14:24:26.908Z,100581.84
2024-03-02T14:27:00.737Z,100583.91
2024-03-02T14:29:30.876Z,100590.13
2024-03-02T14:31:57.792Z,100585.06
2024-03-02T14:34:24.686Z,100593.88
2024-03-02T14:36:51.862Z,100607.38
2024-03-02T14:39:20.772Z,100606.41
2024-03-02T14:41:47.945Z,100622.72
2024-03-02T14:44:14.847Z,100604.72
2024-03-02T14:46:42.940Z,100610.25
2024-03-02T14:49:11.953Z,100605.47
2024-03-02T14:51:39.046Z,100613.50
2024-03-02T14:54:06.160Z,100616.69
2024-03-02T14:56:33.098Z,100611.88
2024-03-02T14:58:59.995Z,100606.13
2024-03-02T15:01:27.190Z,100620.03
2024-03-02T15:03:54.061Z,100613.63
2024-03-02T15:06:21.011Z,100614.00
2024-03-02T15:11:15.646Z,100621.25
2024-03-02T15:13:43.625Z,100628.59
2024-03-02T15:16:10.887Z,100625.97
2024-03-02T15:18:38.069Z,100628.25
2024-03-02T15:21:05.514Z,100627.00
2024-03-02T15:23:32.436Z,100628.63
2024-03-02T15:25:59.516Z,100628.47
2024-03-02T15:28:26.377Z,100632.56
2024-03-02T15:30:54.184Z,100633.22
2024-03-02T15:33:26.370Z,100632.41
2024-03-02T15:35:55.220Z,100645.25
2024-03-02T15:38:32.502Z,100634.19
2024-03-02T15:41:01.462Z,100632.28
2024-03-02T15:43:28.395Z,100642.06
2024-03-02T15:45:55.475Z,100638.19
2024-03-02T15:48:22.432Z,100646.22
2024-03-02T15:50:51.247Z,100640.81
2024-03-02T15:53:18.121Z,100652.44
2024-03-02T15:55:45.336Z,100639.38
2024-03-02T15:58:12.397Z,100643.03
2024-03-02T16:00:39.519Z,100650.81
2024-03-02T16:03:06.554Z,100646.13
2024-03-02T16:05:33.492Z,100652.25
2024-03-02T16:08:00.347Z,100644.88
2024-03-02T16:10:28.141Z,100647.38
2024-03-02T16:12:56.977Z,100656.59
2024-03-02T16:15:24.220Z,100643.47
2024-03-02T16:17:51.148Z,100646.41
2024-03-02T16:20:18.108Z,100648.81
2024-03-02T16:22:44.996Z,100650.50
2024-03-02T16:25:12.073Z,100652.97
2024-03-02T16:27:39.492Z,100654.59
2024-03-02T16:30:07.704Z,100650.22
2024-03-02T16:32:34.931Z,100649.06
2024-03-02T16:35:01.950Z,100651.28
2024-03-02T16:37:30.819Z,100651.06
2024-03-02T16:39:58.090Z,100653.44
2024-03-02T16:42:25.744Z,100661.94
2024-03-02T16:44:56.088Z,100658.44
2024-03-02T16:47:27.626Z,100658.56
2024-03-02T16:49:56.835Z,100658.56
2024-03-02T16:52:29.443Z,100660.19
2024-03-02T16:54:57.040Z,100664.50
2024-03-02T16:57:24.985Z,100657.50
2024-03-02T16:59:52.222Z,100663.25
2024-03-02T17:02:21.318Z,100658.81
2024-03-02T17:04:48.673Z,100668.75
2024-03-02T17:07:15.898Z,100664.59
2024-03-02T17:09:43.057Z,100661.94
2024-03-02T17:12:10.467Z,100661.88
2024-03-02T17:14:37.922Z,100669.38
2024-03-02T17:17:05.125Z,100665.22
2024-03-02T17:19:32.103Z,100665.88
2024-03-02T17:21:59.015Z,100670.84
2024-03-02T17:24:26.498Z,100673.88
2024-03-02T17:26:53.975Z,100668.66
2024-03-02T17:29:21.478Z,100675.22
2024-03-02T17:31:48.474Z,100671.56
2024-03-02T17:34:15.622Z,100673.16
2024-03-02T17:36:43.557Z,100677.31
2024-03-02T17:39:11.188Z,100679.72
2024-03-02T17:41:39.724Z,100682.19
2024-03-02T17:44:07.442Z,100669.66
2024-03-02T17:46:34.670Z,100669.25
2024-03-02T17:49:02.607Z,100673.34
2024-03-02T17:51:30.308Z,100680.69
2024-03-02T17:53:57.737Z,100677.03
2024-03-02T17:56:25.195Z,100679.28
2024-03-02T17:58:52.874Z,100676.09
2024-03-02T18:01:22.729Z,100676.16
2024-03-02T18:03:50.622Z,100677.44
2024-03-02T18:06:19.277Z,100689.19
2024-03-02T18:08:50.430Z,100685.66
2024-03-02T18:11:19.689Z,100681.38
2024-03-02T18:13:47.727Z,100682.09
2024-03-02T18:16:19.231Z,100681.91
2024-03-02T18:18:49.613Z,100683.78
2024-03-02T18:21:17.073Z,100684.41
2024-03-02T18:23:44.168Z,100690.16
2024-03-02T18:26:11.290Z,100699.50
2024-03-02T18:28:41.016Z,100698.75
2024-03-02T18:31:08.544Z,100702.13
2024-03-02T18:33:35.769Z,100695.25
2024-03-02T18:36:04.975Z,100690.63
2024-03-02T18:38:32.897Z,100692.91
2024-03-02T18:41:00.629Z,100693.56
2024-03-02T18:43:28.210Z,100695.06
2024-03-02T18:45:57.035Z,100702.03
2024-03-02T18:48:24.349Z,100694.44
2024-03-02T18:50:51.864Z,100694.38
2024-03-02T18:53:18.993Z,100699.41
2024-03-02T18:55:46.107Z,100696.19
2024-03-02T18:58:13.090Z,100693.66
2024-03-02T19:00:41.216Z,100696.19
2024-03-02T19:03:11.033Z,100693.56
2024-03-02T19:05:39.002Z,100692.69
2024-03-02T19:08:06.869Z,100694.28
2024-03-02T19:10:34.563Z,100690.16
2024-03-02T19:13:01.716Z,100690.22
2024-03-02T19:15:28.966Z,100701.31
2024-03-02T19:17:55.948Z,100697.97
2024-03-02T19:20:24.593Z,100700.03
2024-03-02T19:22:52.545Z,100692.31
2024-03-02T19:25:21.523Z,100702.44
2024-03-02T19:27:48.524Z,100698.03
2024-03-02T19:30:16.069Z,100689.50
2024-03-02T19:32:43.529Z,100686.00
2024-03-02T19:35:13.161Z,100686.00
2024-03-02T19:37:42.020Z,100686.00
2024-03-02T19:40:11.149Z,100690.38
2024-03-02T19:42:38.449Z,100691.41
2024-03-02T19:45:06.558Z,100691.28
2024-03-02T19:47:33.775Z,100687.59
2024-03-02T19:50:00.802Z,100689.31
2024-03-02T19:52:28.904Z,100689.31
2024-03-02T19:54:55.919Z,100684.97
2024-03-02T19:57:24.808Z,100682.50
2024-03-02T19:59:52.034Z,100689.88
2024-03-02T20:02:21.295Z,100689.03
2024-03-02T20:04:48.732Z,100688.84
2024-03-02T20:07:16.518Z,100696.59
2024-03-02T20:09:43.447Z,100684.56
2024-03-02T20:12:10.670Z,100693.00
2024-03-02T20:14:37.644Z,100700.81
2024-03-02T20:17:04.753Z,100698.44
2024-03-02T20:19:31.557Z,100706.09
2024-03-02T20:21:59.698Z,100701.13
2024-03-02T20:24:26.688Z,100700.81
2024-03-02T20:26:53.671Z,100703.09
2024-03-02T20:29:20.622Z,100702.56
2024-03-02T20:31:48.171Z,100707.66
2024-03-02T20:34:17.879Z,100702.41
2024-03-02T20:36:45.888Z,100701.50
2024-03-02T20:39:12.797Z,100702.41
2024-03-02T20:41:39.676Z,100706.47
2024-03-02T20:44:07.081Z,100707.03
2024-03-02T20:46:33.915Z,100715.25
2024-03-02T20:49:01.378Z,100705.56
2024-03-02T20:51:30.892Z,100712.91
2024-03-02T20:53:58.337Z,100717.59
2024-03-02T20:56:27.571Z,100717.25
2024-03-02T20:58:54.583Z,100716.19
2024-03-02T21:01:22.586Z,100714.47
2024-03-02T21:03:49.580Z,100714.28
2024-03-02T21:06:16.631Z,100715.78
2024-03-02T21:08:43.495Z,100725.13
2024-03-02T21:11:10.647Z,100723.97
2024-03-02T21:13:38.087Z,100720.63
2024-03-02T21:16:05.375Z,100719.22
2024-03-02T21:18:32.409Z,100721.16
2024-03-02T21:20:59.346Z,100724.47
2024-03-02T21:23:26.218Z,100720.97
2024-03-02T21:25:53.146Z,100721.63
2024-03-02T21:28:20.348Z,100716.44
2024-03-02T21:30:47.194Z,100721.63
2024-03-02T21:33:14.221Z,100717.72
2024-03-02T21:35:41.077Z,100718.31
2024-03-02T21:38:08.620Z,100717.88
2024-03-02T21:40:35.556Z,100726.91
2024-03-02T21:43:02.587Z,100734.22
2024-03-02T21:45:29.612Z,100731.19
2024-03-02T21:47:56.536Z,100735.16
2024-03-02T21:50:23.441Z,100736.47
2024-03-02T21:52:50.484Z,100739.63
2024-03-02T21:55:17.514Z,100739.44
2024-03-02T21:57:45.630Z,100746.03
2024-03-02T22:00:12.730Z,100748.19
2024-03-02T22:02:40.110Z,100753.78
2024-03-02T22:05:08.231Z,100743.25
2024-03-02T22:07:35.328Z,100741.13
2024-03-02T22:10:02.460Z,100742.50
2024-03-02T22:12:31.025Z,100736.25
2024-03-02T22:14:57.974Z,100733.38
2024-03-02T22:17:26.864Z,100738.06
2024-03-02T22:19:53.712Z,100745.59
2024-03-02T22:22:23.247Z,100744.72
2024-03-02T22:24:50.180Z,100739.44
2024-03-02T22:27:17.001Z,100756.38
2024-03-02T22:29:43.964Z,100747.88
2024-03-02T22:32:10.819Z,100746.09
2024-03-02T22:34:37.637Z,100747.78
2024-03-02T22:37:04.793Z,100750.22
2024-03-02T22:39:31.836Z,100737.31
2024-03-02T22:41:58.712Z,100740.66
2024-03-02T22:44:25.616Z,100743.97
2024-03-02T22:46:52.648Z,100748.84
2024-03-02T22:49:19.660Z,100747.09
2024-03-02T22:51:46.719Z,100751.22
2024-03-02T22:54:13.586Z,100743.41
2024-03-02T22:56:40.484Z,100743.19
2024-03-02T22:59:07.325Z,100741.25
2024-03-02T23:01:36.058Z,100753.00
2024-03-02T23:04:04.357Z,100749.38
2024-03-02T23:06:31.289Z,100751.72
2024-03-02T23:08:58.117Z,100746.44
2024-03-02T23:11:25.095Z,100744.59
2024-03-02T23:13:52.018Z,100748.72
2024-03-02T23:16:18.997Z,100754.56
2024-03-02T23:18:45.932Z,100753.59
2024-03-02T23:21:12.937Z,100755.16
2024-03-02T23:23:39.772Z,100750.78
2024-03-02T23:26:07.643Z,100756.53
2024-03-02T23:28:34.636Z,100766.69
2024-03-02T23:31:01.669Z,100762.41
2024-03-02T23:33:28.518Z,100761.41
2024-03-02T23:35:55.499Z,100755.25
2024-03-02T23:38:22.348Z,100761.78
2024-03-02T23:40:49.153Z,100754.00
2024-03-02T23:43:16.173Z,100762.38
2024-03-02T23:45:43.225Z,100761.31
2024-03-02T23:48:11.718Z,100763.75
2024-03-02T23:50:38.749Z,100771.25
2024-03-02T23:53:05.697Z,100751.63
2024-03-02T23:55:43.016Z,100754.94
2024-03-02T23:58:18.572Z,100757.47
